Time;durP1;ratioP1;P1;durP2;ratioP2;P2;SDS_P1;SDS_P2;PMS_P1;PMS_P2;Temp;Humidity;BMP_temperature;BMP_pressure;BME280_temperature;BME280_humidity;BME280_pressure;Samples;Min_cycle;Max_cycle;Signal;HPM_P1;HPM_P2
2022/05/07 00:01:04;;;;;;;5.83;3.10;;;;;;;9.29;55.25;101420.98;1803864;79;21073;-74
2022/05/07 00:03:31;;;;;;;5.97;3.02;;;;;;;9.30;55.26;101417.80;1803359;78;21218;-73
2022/05/07 00:05:58;;;;;;;4.47;3.00;;;;;;;9.30;55.27;101417.28;1803980;78;20951;-74
2022/05/07 00:08:26;;;;;;;6.70;3.10;;;;;;;9.31;55.32;101418.08;1770067;79;20995;-73
2022/05/07 00:10:53;;;;;;;5.78;2.85;;;;;;;9.33;55.34;101413.34;1804214;79;21025;-74
2022/05/07 00:13:22;;;;;;;4.87;2.83;;;;;;;9.33;55.28;101418.16;1803634;79;21151;-74
2022/05/07 00:18:35;;;;;;;6.33;3.00;;;;;;;9.37;54.98;101416.66;1804789;78;21010;-73
2022/05/07 00:21:02;;;;;;;5.22;3.33;;;;;;;9.40;54.77;101412.72;1804015;79;21401;-74
2022/05/07 00:23:30;;;;;;;5.53;3.00;;;;;;;9.40;54.59;101408.20;1803704;79;21035;-73
2022/05/07 00:25:58;;;;;;;8.43;3.60;;;;;;;9.43;54.44;101408.27;1802162;78;21338;-72
2022/05/07 00:28:25;;;;;;;6.33;3.30;;;;;;;9.46;54.21;101413.16;1805643;79;21018;-72
2022/05/07 00:30:52;;;;;;;6.75;3.50;;;;;;;9.47;54.02;101409.95;1804289;79;21085;-73
2022/05/07 00:33:20;;;;;;;5.55;3.05;;;;;;;9.49;53.81;101407.89;1803363;78;21018;-73
2022/05/07 00:35:47;;;;;;;7.70;3.30;;;;;;;9.51;53.67;101410.63;1805214;78;21077;-73
2022/05/07 00:38:14;;;;;;;6.10;3.02;;;;;;;9.52;53.46;101401.58;1804052;78;21533;-73
2022/05/07 00:40:42;;;;;;;6.58;3.47;;;;;;;9.53;53.37;101403.19;1802855;79;21078;-73
2022/05/07 00:43:09;;;;;;;4.75;3.20;;;;;;;9.55;53.21;101402.45;1804012;79;20975;-72
2022/05/07 00:45:36;;;;;;;6.20;3.35;;;;;;;9.56;53.07;101398.73;1802756;78;20995;-73
2022/05/07 00:48:04;;;;;;;6.47;3.25;;;;;;;9.57;52.93;101396.34;1802996;78;21399;-72
2022/05/07 00:53:16;;;;;;;5.15;3.35;;;;;;;9.60;52.64;101396.42;1803963;79;21006;-73
2022/05/07 00:55:43;;;;;;;7.60;3.92;;;;;;;9.61;52.52;101399.40;1771971;79;21101;-73
2022/05/07 00:58:10;;;;;;;6.85;3.47;;;;;;;9.62;52.41;101397.82;1804016;78;21018;-74
2022/05/07 01:00:37;;;;;;;6.55;3.50;;;;;;;9.63;52.36;101397.30;1804218;79;21038;-73
2022/05/07 01:03:05;;;;;;;6.30;3.72;;;;;;;9.63;52.39;101395.44;1803459;79;22072;-73
2022/05/07 01:05:32;;;;;;;8.68;3.47;;;;;;;9.65;52.29;101399.75;1809716;78;20979;-71
2022/05/07 01:08:00;;;;;;;7.30;3.58;;;;;;;9.64;52.22;101398.94;1742699;81;20994;-73
2022/05/07 01:10:28;;;;;;;9.03;4.58;;;;;;;9.65;52.08;101395.75;1715864;80;21056;-73
2022/05/07 01:12:56;;;;;;;7.53;3.42;;;;;;;9.64;51.98;101393.61;1779340;78;21446;-74
2022/05/07 01:15:25;;;;;;;5.30;3.17;;;;;;;9.65;51.94;101396.55;1804284;78;21138;-75
2022/05/07 01:17:53;;;;;;;6.72;3.77;;;;;;;9.64;51.94;101396.27;1795211;79;21019;-74
2022/05/07 01:20:20;;;;;;;6.30;3.60;;;;;;;9.63;51.86;101400.77;1806267;78;20993;-74
2022/05/07 01:22:47;;;;;;;7.58;4.00;;;;;;;9.62;51.66;101392.48;1805547;79;21194;-74
2022/05/07 01:25:16;;;;;;;6.75;4.08;;;;;;;9.63;51.57;101390.09;1788990;78;22355;-73
2022/05/07 01:27:43;;;;;;;8.30;3.62;;;;;;;9.65;51.67;101389.08;1805465;78;21102;-74
2022/05/07 01:30:13;;;;;;;6.80;3.55;;;;;;;9.63;51.61;101392.77;1807818;78;20997;-74
2022/05/07 01:32:42;;;;;;;5.65;3.70;;;;;;;9.63;51.51;101391.44;1826864;78;20970;-74
2022/05/07 01:35:09;;;;;;;6.03;3.40;;;;;;;9.65;51.49;101389.08;1797578;78;21018;-74
2022/05/07 01:37:36;;;;;;;9.80;3.92;;;;;;;9.64;51.51;101390.94;1772270;79;21477;-74
2022/05/07 01:40:05;;;;;;;6.60;3.50;;;;;;;9.63;51.55;101386.63;1804096;78;21612;-74
2022/05/07 01:42:33;;;;;;;6.03;3.87;;;;;;;9.61;51.62;101385.53;1803019;78;21038;-73
2022/05/07 01:45:01;;;;;;;6.47;3.50;;;;;;;9.62;51.69;101387.67;1804528;78;21082;-74
2022/05/07 01:50:14;;;;;;;6.65;3.55;;;;;;;9.62;51.68;101389.81;1803502;79;20928;-73
2022/05/07 01:52:42;;;;;;;7.58;3.65;;;;;;;9.62;51.76;101390.34;1806459;78;21164;-73
2022/05/07 01:55:09;;;;;;;7.55;3.87;;;;;;;9.62;51.78;101386.34;1804439;79;21037;-73
2022/05/07 01:57:36;;;;;;;7.30;4.03;;;;;;;9.61;51.78;101390.88;1803922;79;20995;-73
2022/05/07 02:00:06;;;;;;;6.45;3.98;;;;;;;9.63;51.81;101389.30;1803347;79;20990;-73
2022/05/07 02:02:35;;;;;;;5.45;3.52;;;;;;;9.63;51.80;101389.30;1803696;78;21082;-73
2022/05/07 02:05:03;;;;;;;6.92;4.00;;;;;;;9.62;51.88;101385.81;1808427;78;21461;-73
2022/05/07 02:07:31;;;;;;;7.00;4.10;;;;;;;9.62;51.94;101391.16;1804172;78;20939;-73
2022/05/07 02:09:59;;;;;;;6.00;3.55;;;;;;;9.62;51.97;101391.68;1803847;79;21003;-72
2022/05/07 02:12:26;;;;;;;7.47;4.53;;;;;;;9.59;51.97;101388.94;1799149;78;21038;-73
2022/05/07 02:14:54;;;;;;;9.90;4.47;;;;;;;9.59;51.99;101390.80;1804872;78;21033;-72
2022/05/07 02:17:22;;;;;;;7.85;4.42;;;;;;;9.58;52.00;101389.19;1771985;79;21102;-73
2022/05/07 02:19:49;;;;;;;9.05;4.67;;;;;;;9.58;52.04;101392.66;1801778;79;21007;-74
2022/05/07 02:22:16;;;;;;;7.60;4.40;;;;;;;9.58;52.07;101389.19;1804028;78;21039;-74
2022/05/07 02:24:43;;;;;;;6.87;3.98;;;;;;;9.58;52.03;101384.66;1802074;79;21042;-74
2022/05/07 02:27:10;;;;;;;7.85;4.35;;;;;;;9.60;52.06;101392.42;1802752;78;21101;-73
2022/05/07 02:29:37;;;;;;;8.48;4.25;;;;;;;9.60;52.00;101385.22;1801843;78;21205;-74
2022/05/07 02:32:05;;;;;;;8.23;3.92;;;;;;;9.62;52.08;101387.67;1802863;79;21176;-74
2022/05/07 02:34:36;;;;;;;8.18;4.20;;;;;;;9.61;52.13;101393.54;1803086;78;21443;-74
2022/05/07 02:37:04;;;;;;;6.08;4.47;;;;;;;9.63;52.13;101390.63;1802538;78;21081;-74
2022/05/07 02:39:35;;;;;;;8.48;4.15;;;;;;;9.61;52.17;101384.20;1803183;78;21097;-74
2022/05/07 02:44:48;;;;;;;8.58;4.75;;;;;;;9.62;52.10;101390.34;1804160;79;21062;-73
2022/05/07 02:47:15;;;;;;;6.25;3.92;;;;;;;9.62;51.98;101388.48;1803649;79;21579;-73
2022/05/07 02:49:43;;;;;;;9.10;4.15;;;;;;;9.65;51.92;101393.08;1799725;78;21300;-73
2022/05/07 02:52:12;;;;;;;10.38;4.30;;;;;;;9.65;51.88;101388.55;1803391;78;21007;-73
2022/05/07 02:54:39;;;;;;;6.87;4.05;;;;;;;9.67;51.85;101394.45;1798516;79;21852;-74
2022/05/07 02:57:07;;;;;;;8.48;4.17;;;;;;;9.69;51.79;101395.57;1803719;79;21002;-74
2022/05/07 02:59:34;;;;;;;8.43;4.40;;;;;;;9.70;51.70;101395.33;1804589;78;21003;-73
2022/05/07 03:02:02;;;;;;;7.60;4.28;;;;;;;9.71;51.62;101390.83;1806347;78;21093;-73
2022/05/07 03:04:30;;;;;;;8.30;4.42;;;;;;;9.72;51.53;101391.11;1809908;78;21089;-74
2022/05/07 03:06:57;;;;;;;7.95;4.83;;;;;;;9.73;51.45;101390.86;1799996;78;21248;-74
2022/05/07 03:09:24;;;;;;;7.53;4.47;;;;;;;9.78;51.42;101395.53;1802560;79;21093;-74
2022/05/07 03:11:51;;;;;;;8.73;4.42;;;;;;;9.78;51.34;101400.34;1802141;79;21431;-73
2022/05/07 03:14:20;;;;;;;7.30;4.35;;;;;;;9.83;51.32;101399.63;1801224;78;20983;-73
2022/05/07 03:16:48;;;;;;;7.35;4.40;;;;;;;9.83;51.35;101398.30;1802943;78;21557;-74
2022/05/07 03:19:16;;;;;;;8.55;4.47;;;;;;;9.84;51.30;101399.42;1771274;79;21144;-73
2022/05/07 03:21:43;;;;;;;7.08;4.17;;;;;;;9.86;51.21;101393.31;1803031;78;21093;-73
2022/05/07 03:24:10;;;;;;;6.83;4.30;;;;;;;9.89;51.02;101395.23;1802772;78;21026;-73
2022/05/07 03:26:39;;;;;;;10.58;4.70;;;;;;;9.94;50.82;101392.17;1802425;78;21010;-72
2022/05/07 03:29:06;;;;;;;8.15;4.58;;;;;;;9.96;50.77;101394.07;1802807;78;21415;-73
2022/05/07 03:31:35;;;;;;;8.18;4.67;;;;;;;10.01;50.69;101397.39;1802176;79;21018;-74
2022/05/07 03:34:02;;;;;;;9.55;4.37;;;;;;;10.03;50.58;101397.43;1802245;78;21502;-73
2022/05/07 03:36:31;;;;;;;8.50;4.33;;;;;;;10.08;50.41;101394.89;1802939;78;20982;-72
2022/05/07 03:38:58;;;;;;;8.75;4.30;;;;;;;10.13;50.42;101402.72;1803078;79;21085;-73
2022/05/07 03:41:27;;;;;;;7.70;4.00;;;;;;;10.14;50.32;101398.49;1786865;78;20946;-73
2022/05/07 03:43:54;;;;;;;7.67;3.75;;;;;;;10.18;50.23;101397.50;1800937;78;21895;-72
2022/05/07 03:46:24;;;;;;;10.32;4.28;;;;;;;10.21;50.18;101399.70;1802989;78;21022;-72
2022/05/07 03:48:53;;;;;;;9.33;4.55;;;;;;;10.25;50.16;101403.00;1802453;78;21414;-73
2022/05/07 03:51:20;;;;;;;7.30;4.05;;;;;;;10.28;50.20;101403.90;1797836;78;21049;-74
2022/05/07 03:53:48;;;;;;;6.75;3.92;;;;;;;10.32;50.16;101402.38;1809634;78;21433;-73
2022/05/07 03:56:16;;;;;;;8.18;4.10;;;;;;;10.37;50.20;101408.37;1804978;78;21160;-73
2022/05/07 03:58:44;;;;;;;7.58;4.15;;;;;;;10.42;49.99;101409.80;1778664;79;20927;-73
2022/05/07 04:01:15;;;;;;;8.70;3.92;;;;;;;10.47;49.98;101411.25;1805288;78;20939;-72
2022/05/07 04:03:43;;;;;;;6.55;4.50;;;;;;;10.51;50.02;101412.40;1806080;79;20979;-73
2022/05/07 04:06:14;;;;;;;;;;;;;;;10.55;50.08;101410.88;1804253;78;21136;-74
2022/05/07 04:08:42;;;;;;;7.80;3.50;;;;;;;10.61;50.04;101410.99;1804319;79;21152;-75
2022/05/07 04:11:09;;;;;;;7.47;4.22;;;;;;;10.67;49.94;101407.38;1803144;79;20959;-73
2022/05/07 04:13:37;;;;;;;6.33;3.95;;;;;;;10.74;49.88;101412.06;1803883;79;21030;-75
2022/05/07 04:16:07;;;;;;;7.28;4.03;;;;;;;10.84;49.77;101414.93;1804824;78;20990;-71
2022/05/07 04:18:37;;;;;;;8.55;4.00;;;;;;;10.95;49.62;101416.73;1803299;79;21421;-71
2022/05/07 04:21:11;;;;;;;6.12;3.45;;;;;;;11.08;49.58;101412.16;1805640;78;21844;-73
2022/05/07 04:23:43;;;;;;;6.05;3.40;;;;;;;11.20;49.54;101412.94;1803025;78;20994;-74
2022/05/07 04:26:10;;;;;;;7.72;3.65;;;;;;;11.35;49.34;101411.04;1800325;79;21683;-73
2022/05/07 04:28:41;;;;;;;6.62;3.95;;;;;;;11.53;49.16;101406.02;1803066;78;21065;-73
2022/05/07 04:31:08;;;;;;;6.58;3.80;;;;;;;11.73;48.76;101405.00;1822465;78;21040;-74
2022/05/07 04:33:35;;;;;;;8.63;3.90;;;;;;;11.92;48.32;101399.70;1790767;79;21303;-72
2022/05/07 04:36:05;;;;;;;7.78;4.05;;;;;;;12.13;47.74;101399.47;1803261;78;21474;-73
2022/05/07 04:38:35;;;;;;;7.78;3.77;;;;;;;12.32;47.07;101398.66;1804107;78;21426;-73
2022/05/07 04:41:24;;;;;;;;;;;;;;;;;;;;;
2022/05/07 04:43:46;;;;;;;7.33;4.00;;;;;;;12.68;46.32;101401.25;1792403;78;20959;-73
2022/05/07 04:46:15;;;;;;;8.25;4.10;;;;;;;12.89;45.94;101398.27;1803757;78;21110;-73
2022/05/07 04:48:42;;;;;;;6.62;3.70;;;;;;;13.09;45.41;101400.88;1794684;78;20975;-73
2022/05/07 04:51:09;;;;;;;6.62;3.80;;;;;;;13.29;44.96;101398.96;1803367;78;21122;-73
2022/05/07 04:53:38;;;;;;;8.83;4.20;;;;;;;13.51;44.45;101399.70;1803746;78;21009;-75
2022/05/07 04:56:07;;;;;;;6.67;4.10;;;;;;;13.75;44.16;101403.37;1808986;78;21070;-74
2022/05/07 04:58:36;;;;;;;8.50;4.15;;;;;;;13.97;43.35;101406.76;1803440;78;21830;-74
2022/05/07 05:01:04;;;;;;;9.33;5.55;;;;;;;14.17;43.05;101400.70;1803682;78;21541;-73
2022/05/07 05:03:34;;;;;;;6.55;4.17;;;;;;;14.37;42.34;101401.34;1802745;79;21050;-73
2022/05/07 05:06:04;;;;;;;9.48;4.37;;;;;;;14.54;41.73;101398.48;1803060;78;21113;-74
2022/05/07 05:08:33;;;;;;;8.45;4.17;;;;;;;14.69;41.50;101401.24;1791861;79;20982;-73
2022/05/07 05:11:03;;;;;;;6.53;4.05;;;;;;;14.88;41.27;101404.81;1804800;78;21165;-73
2022/05/07 05:13:32;;;;;;;6.08;3.80;;;;;;;15.08;40.79;101402.16;1803105;79;20990;-73
2022/05/07 05:16:00;;;;;;;7.93;3.90;;;;;;;15.30;40.37;101401.94;1804645;79;20983;-73
2022/05/07 05:18:30;;;;;;;7.40;3.87;;;;;;;15.53;39.74;101391.17;1804241;78;21347;-73
2022/05/07 05:20:57;;;;;;;8.70;4.17;;;;;;;15.73;39.11;101391.73;1803463;78;21166;-74
2022/05/07 05:23:26;;;;;;;8.20;4.03;;;;;;;15.92;38.32;101387.38;1790893;78;21232;-74
2022/05/07 05:25:54;;;;;;;8.03;4.07;;;;;;;16.12;38.07;101387.06;1803588;79;21066;-72
2022/05/07 05:28:23;;;;;;;10.03;4.13;;;;;;;16.30;37.86;101388.38;1803353;78;21273;-74
2022/05/07 05:30:53;;;;;;;8.57;4.23;;;;;;;16.49;37.24;101383.98;1803773;78;21281;-74
2022/05/07 05:33:21;;;;;;;8.00;4.27;;;;;;;16.62;37.18;101382.04;1803564;79;21167;-73
2022/05/07 05:35:49;;;;;;;7.40;4.40;;;;;;;16.79;36.83;101390.35;1801069;78;21567;-74
2022/05/07 05:38:18;;;;;;;6.13;3.90;;;;;;;16.94;36.54;101383.50;1805545;78;21054;-75
2022/05/07 05:40:48;;;;;;;7.37;4.33;;;;;;;17.07;36.15;101385.57;1804419;79;21766;-74
2022/05/07 05:43:16;;;;;;;6.27;4.00;;;;;;;17.17;35.67;101387.40;1804672;78;21393;-73
2022/05/07 05:45:44;;;;;;;7.70;4.07;;;;;;;17.25;35.64;101384.66;1805996;78;21284;-73
2022/05/07 05:48:15;;;;;;;8.43;3.90;;;;;;;17.35;35.56;101388.64;1799731;78;21320;-74
2022/05/07 05:50:42;;;;;;;8.47;4.40;;;;;;;17.45;35.51;101387.20;1804394;78;21271;-73
2022/05/07 05:53:10;;;;;;;8.57;4.30;;;;;;;17.62;34.87;101390.84;1772174;79;21327;-73
2022/05/07 05:55:40;;;;;;;6.97;3.90;;;;;;;17.62;34.87;101390.84;1803256;78;21475;-72
2022/05/07 05:58:07;;;;;;;7.93;3.93;;;;;;;17.57;34.83;101391.70;1804048;78;21476;-71
2022/05/07 06:00:37;;;;;;;6.93;3.60;;;;;;;17.67;34.91;101395.38;1805878;78;21376;-74
2022/05/07 06:03:04;;;;;;;7.10;3.73;;;;;;;17.67;34.91;101395.38;1772102;79;21370;-73
2022/05/07 06:05:31;;;;;;;7.63;3.97;;;;;;;17.79;34.95;101393.14;1804837;78;21510;-72
2022/05/07 06:07:59;;;;;;;7.20;4.03;;;;;;;17.86;34.74;101389.55;1808324;78;21766;-74
2022/05/07 06:10:30;;;;;;;7.92;4.28;;;;;;;17.87;34.70;101392.54;1550874;78;10000218;-74
2022/05/07 06:12:57;;;;;;;6.43;3.90;;;;;;;17.98;34.43;101396.73;1808252;78;21074;-73
2022/05/07 06:15:26;;;;;;;8.27;4.50;;;;;;;18.07;33.92;101396.13;1802392;78;21550;-74
2022/05/07 06:17:53;;;;;;;6.63;4.00;;;;;;;18.15;34.28;101390.88;1822154;78;21676;-73
2022/05/07 06:20:21;;;;;;;9.77;4.10;;;;;;;18.27;33.49;101402.11;1819091;78;21737;-74
2022/05/07 06:22:51;;;;;;;7.53;4.00;;;;;;;18.38;33.42;101398.73;1824923;77;22174;-72
2022/05/07 06:28:06;;;;;;;7.00;3.80;;;;;;;18.66;33.58;101400.30;1805035;78;21712;-72
2022/05/07 06:30:38;;;;;;;9.40;4.20;;;;;;;18.83;33.48;101397.13;1803100;78;21724;-73
2022/05/07 06:33:07;;;;;;;8.00;4.37;;;;;;;18.98;33.09;101396.34;1778402;79;21773;-73
2022/05/07 06:35:39;;;;;;;8.27;4.37;;;;;;;19.14;32.86;101400.19;1820842;78;22120;-75
2022/05/07 06:38:09;;;;;;;9.60;4.87;;;;;;;19.20;32.78;101398.45;1806696;78;21492;-74
2022/05/07 06:40:39;;;;;;;6.97;3.83;;;;;;;19.47;31.80;101397.50;1811811;78;21687;-73
2022/05/07 06:43:09;;;;;;;7.27;3.90;;;;;;;19.47;31.80;101397.50;1823929;77;21797;-73
2022/05/07 06:45:46;;;;;;;7.50;4.10;;;;;;;19.58;31.33;101402.47;1780060;78;20991;-73
2022/05/07 06:48:13;;;;;;;8.10;4.43;;;;;;;19.71;31.12;101394.16;1800436;78;22389;-73
2022/05/07 06:50:41;;;;;;;8.20;4.40;;;;;;;19.86;30.70;101399.28;1800914;78;21025;-75
2022/05/07 06:53:09;;;;;;;9.17;4.37;;;;;;;20.10;29.83;101384.74;1805219;78;21006;-73
2022/05/07 06:55:58;;;;;;;8.00;4.40;;;;;;;20.10;29.83;101384.74;1796509;79;21294;-76
2022/05/07 06:58:30;;;;;;;8.70;4.80;;;;;;;20.29;29.64;101381.38;1811370;78;20938;-73
2022/05/07 07:01:01;;;;;;;8.97;4.40;;;;;;;20.47;28.09;101387.02;1788123;79;20978;-72
2022/05/07 07:03:30;;;;;;;8.23;4.23;;;;;;;20.53;27.79;101384.45;1804021;78;20991;-73
2022/05/07 07:05:58;;;;;;;8.53;4.30;;;;;;;20.56;27.53;101377.86;1775021;78;21473;-73
2022/05/07 07:08:25;;;;;;;7.77;4.60;;;;;;;20.61;27.68;101379.68;1792592;79;21431;-74
2022/05/07 07:10:52;;;;;;;8.40;4.27;;;;;;;20.74;28.07;101382.13;1801227;79;21042;-73
2022/05/07 07:13:20;;;;;;;9.90;4.33;;;;;;;20.84;27.88;101382.69;1803920;79;21086;-72
2022/05/07 07:15:48;;;;;;;6.73;4.23;;;;;;;20.96;27.19;101375.91;1804047;79;20983;-73
2022/05/07 07:18:15;;;;;;;9.83;4.50;;;;;;;21.00;26.51;101379.08;1804381;79;21191;-73
2022/05/07 07:20:48;;;;;;;8.07;4.17;;;;;;;21.04;26.57;101380.06;1804058;79;21062;-74
2022/05/07 07:23:22;;;;;;;9.73;4.73;;;;;;;21.10;25.96;101375.32;1804661;79;20947;-73
2022/05/07 07:25:51;;;;;;;9.40;4.63;;;;;;;21.11;26.30;101380.98;1803285;79;21010;-74
2022/05/07 07:28:19;;;;;;;8.17;4.00;;;;;;;21.22;26.05;101381.02;1804362;79;21572;-72
2022/05/07 07:30:46;;;;;;;6.43;4.03;;;;;;;21.33;25.69;101384.84;1803484;79;21089;-73
2022/05/07 07:33:15;;;;;;;7.70;4.40;;;;;;;21.41;25.76;101373.23;1804218;79;21594;-73
2022/05/07 07:35:44;;;;;;;7.03;4.13;;;;;;;21.51;25.36;101372.98;1804322;79;20999;-73
2022/05/07 07:38:11;;;;;;;7.30;4.17;;;;;;;21.59;25.97;101379.03;1804472;78;20987;-73
2022/05/07 07:40:39;;;;;;;7.03;4.23;;;;;;;21.68;25.48;101377.14;1803922;79;20959;-73
2022/05/07 07:43:06;;;;;;;6.70;4.00;;;;;;;21.74;25.37;101375.10;1804164;78;21038;-72
2022/05/07 07:48:18;;;;;;;7.50;3.90;;;;;;;21.87;24.67;101374.77;1803902;79;21097;-74
2022/05/07 07:50:49;;;;;;;8.97;4.20;;;;;;;22.00;24.77;101369.22;1804443;79;21517;-72
2022/05/07 07:53:16;;;;;;;8.03;3.93;;;;;;;22.12;24.42;101369.99;1804005;79;21025;-72
2022/05/07 07:55:43;;;;;;;7.80;4.23;;;;;;;22.24;24.58;101371.59;1803322;78;21144;-72
2022/05/07 07:58:11;;;;;;;7.30;4.10;;;;;;;22.35;24.24;101373.45;1813129;78;21235;-73
2022/05/07 08:00:41;;;;;;;8.60;4.00;;;;;;;22.43;23.88;101368.58;1805170;78;21524;-74
2022/05/07 08:03:14;;;;;;;8.67;4.10;;;;;;;22.43;24.08;101366.41;1803255;79;21026;-72
2022/05/07 08:05:43;;;;;;;6.43;3.50;;;;;;;22.45;24.29;101362.83;1804114;79;21489;-74
2022/05/07 08:13:46;;;;;;;6.57;4.07;;;;;;;22.47;22.49;101364.66;1803888;78;21073;-72
2022/05/07 08:16:17;;;;;;;8.37;3.90;;;;;;;22.39;23.04;101366.25;1804603;79;20971;-72
2022/05/07 08:18:52;;;;;;;6.58;3.83;;;;;;;22.40;23.01;101360.24;1803719;79;21085;-72
2022/05/07 08:21:21;;;;;;;8.20;4.03;;;;;;;22.38;22.68;101366.58;1805377;79;21046;-73
2022/05/07 08:23:49;;;;;;;6.20;3.47;;;;;;;22.38;22.54;101365.22;1787880;79;21149;-73
2022/05/07 08:26:16;;;;;;;9.70;4.30;;;;;;;22.38;22.11;101360.58;1804523;79;21014;-73
2022/05/07 08:28:43;;;;;;;7.13;4.33;;;;;;;22.41;22.29;101355.06;1804270;79;21061;-72
2022/05/07 08:31:11;;;;;;;7.97;3.90;;;;;;;22.41;22.84;101360.50;1804436;79;21144;-72
2022/05/07 08:33:41;;;;;;;9.73;4.57;;;;;;;22.55;22.63;101361.16;1804545;78;21105;-71
2022/05/07 08:36:10;;;;;;;7.20;4.30;;;;;;;22.75;22.54;101363.02;1772706;79;21468;-72
2022/05/07 08:38:37;;;;;;;7.07;4.20;;;;;;;22.93;21.84;101360.55;1803468;79;21038;-73
2022/05/07 08:41:04;;;;;;;6.90;4.07;;;;;;;22.98;22.06;101356.89;1803513;79;21062;-74
2022/05/07 08:43:37;;;;;;;6.50;4.07;;;;;;;23.07;21.34;101351.67;1804185;79;21442;-72
2022/05/07 08:46:18;;;;;;;7.93;4.50;;;;;;;23.08;21.30;101347.02;1805178;78;20963;-74
2022/05/07 08:48:47;;;;;;;;;;;;;;;23.06;21.64;101345.97;1806558;78;21148;-73
2022/05/07 08:51:15;;;;;;;5.73;3.77;;;;;;;23.16;22.24;101351.11;1803992;79;20202;-73
2022/05/07 08:53:45;;;;;;;6.63;3.80;;;;;;;23.32;21.49;101347.86;1808665;78;20956;-73
2022/05/07 08:56:14;;;;;;;7.80;3.85;;;;;;;23.36;20.91;101347.44;1804274;78;20991;-73
2022/05/07 08:58:49;;;;;;;7.00;4.10;;;;;;;23.41;20.47;101345.92;1795939;79;21002;-73
2022/05/07 09:01:16;;;;;;;7.30;3.73;;;;;;;23.44;20.36;101343.91;1804420;79;21548;-73
2022/05/07 09:03:45;;;;;;;7.53;3.70;;;;;;;23.41;19.83;101328.20;1804067;79;20904;-73
2022/05/07 09:06:26;;;;;;;6.65;3.52;;;;;;;23.30;20.11;101339.22;1803964;79;21714;-73
2022/05/07 09:08:55;;;;;;;5.33;3.67;;;;;;;23.29;20.34;101338.97;1803916;79;20995;-72
2022/05/07 09:11:22;;;;;;;5.60;3.97;;;;;;;23.29;19.95;101326.70;1816682;78;20973;-73
2022/05/07 09:14:05;;;;;;;5.83;3.40;;;;;;;23.13;20.05;101329.13;1828968;78;21146;-72
2022/05/07 09:16:42;;;;;;;7.30;3.57;;;;;;;23.07;20.54;101329.08;1832400;78;20927;-74
2022/05/07 09:19:28;;;;;;;6.83;3.57;;;;;;;23.04;19.83;101335.17;1822178;78;20974;-74
2022/05/07 09:22:05;;;;;;;5.60;3.00;;;;;;;22.96;21.06;101334.60;1792706;79;21506;-73
2022/05/07 09:24:32;;;;;;;6.10;3.10;;;;;;;23.01;20.78;101329.80;1797439;79;20978;-74
2022/05/07 09:27:00;;;;;;;6.37;3.10;;;;;;;23.08;20.83;101334.20;1800471;78;21613;-72
2022/05/07 09:29:28;;;;;;;6.87;3.43;;;;;;;23.15;21.08;101329.05;1803619;78;21018;-73
2022/05/07 09:31:55;;;;;;;8.43;3.93;;;;;;;23.12;20.48;101328.90;1803684;78;21280;-73
2022/05/07 09:37:20;;;;;;;6.93;3.70;;;;;;;23.00;20.83;101325.48;1789196;78;21093;-73
2022/05/07 09:39:51;;;;;;;7.37;4.10;;;;;;;22.98;20.52;101324.20;1803683;78;21235;-74
2022/05/07 09:42:21;;;;;;;5.90;2.87;;;;;;;23.01;21.64;101322.98;1801752;78;21092;-74
2022/05/07 09:44:48;;;;;;;6.80;2.90;;;;;;;23.11;21.80;101317.77;1804246;78;21050;-72
2022/05/07 09:47:16;;;;;;;5.43;2.90;;;;;;;23.24;21.49;101307.81;1803288;78;21116;-73
2022/05/07 09:52:32;;;;;;;7.40;3.37;;;;;;;23.50;21.64;101311.26;1801944;78;21234;-74
2022/05/07 09:57:44;;;;;;;5.87;3.00;;;;;;;23.80;21.20;101305.88;1803221;78;21058;-72
2022/05/07 10:00:14;;;;;;;6.93;2.80;;;;;;;23.96;21.50;101296.00;1803851;78;21034;-74
2022/05/07 10:03:02;;;;;;;10.80;3.90;;;;;;;24.14;21.73;101304.87;1803783;79;21058;-73
2022/05/07 10:05:44;;;;;;;6.40;3.30;;;;;;;24.27;20.99;101300.30;1783941;78;22350;-73
2022/05/07 10:08:31;;;;;;;6.70;3.40;;;;;;;24.35;20.53;101298.09;1801564;79;21014;-72
2022/05/07 10:10:58;;;;;;;9.03;3.30;;;;;;;24.36;20.50;101296.95;1802232;79;21010;-74
2022/05/07 10:13:27;;;;;;;9.40;3.57;;;;;;;24.39;21.14;101297.66;1802811;79;21541;-74
2022/05/07 10:16:01;;;;;;;6.10;3.07;;;;;;;24.45;20.61;101296.36;1803399;78;20994;-73
2022/05/07 10:18:41;;;;;;;6.77;2.83;;;;;;;24.48;20.45;101294.33;1803378;78;21851;-74
2022/05/07 10:21:14;;;;;;;5.90;2.90;;;;;;;24.49;20.43;101286.36;1803492;78;20991;-73
2022/05/07 10:23:55;;;;;;;5.50;3.40;;;;;;;24.50;20.51;101286.58;1789542;79;21058;-73
2022/05/07 10:26:39;;;;;;;7.90;3.53;;;;;;;24.52;20.23;101284.33;1802641;79;20984;-73
2022/05/07 10:29:07;;;;;;;6.50;3.27;;;;;;;24.52;21.05;101272.03;1805375;78;20995;-70
2022/05/07 10:31:47;;;;;;;6.37;3.53;;;;;;;24.67;21.66;101271.19;1804995;79;21462;-73
2022/05/07 10:34:27;;;;;;;6.07;3.10;;;;;;;24.85;21.10;101275.36;1803886;79;20938;-73
2022/05/07 10:37:04;;;;;;;5.40;3.17;;;;;;;25.02;20.09;101265.62;1803648;79;20959;-73
2022/05/07 10:39:31;;;;;;;7.50;3.10;;;;;;;25.15;19.76;101254.75;1802350;79;21026;-74
2022/05/07 10:42:01;;;;;;;6.47;2.90;;;;;;;25.20;19.99;101264.08;1803601;78;21093;-73
2022/05/07 10:44:34;;;;;;;134.73;13.27;;;;;;;25.30;19.53;101256.80;1803404;79;21188;-74
2022/05/07 10:47:15;;;;;;;34.50;6.77;;;;;;;25.31;19.65;101258.42;1801103;79;20943;-73
2022/05/07 10:49:53;;;;;;;7.20;3.20;;;;;;;25.26;19.61;101249.86;1804265;79;20994;-74
2022/05/07 10:52:34;;;;;;;7.83;3.33;;;;;;;25.28;19.86;101249.53;1807730;78;21148;-73
2022/05/07 10:55:11;;;;;;;5.47;2.70;;;;;;;25.36;19.58;101242.35;1787633;79;21011;-75
2022/05/07 10:57:46;;;;;;;6.93;3.03;;;;;;;25.34;19.78;101245.44;1802957;78;21260;-72
2022/05/07 11:00:20;;;;;;;21.50;5.03;;;;;;;25.24;19.23;101239.84;1803586;78;21096;-74
2022/05/07 11:02:56;;;;;;;49.87;8.20;;;;;;;25.19;19.43;101236.52;1803621;79;21489;-72
2022/05/07 11:05:32;;;;;;;6.70;3.30;;;;;;;25.25;19.87;101234.59;1782074;78;21222;-71
2022/05/07 11:08:02;;;;;;;9.73;3.30;;;;;;;25.34;19.89;101230.40;1801548;78;20927;-73
2022/05/07 11:10:30;;;;;;;6.37;3.20;;;;;;;25.45;19.64;101232.11;1803391;79;21063;-72
2022/05/07 11:13:07;;;;;;;7.90;3.00;;;;;;;25.45;19.24;101221.17;1789764;79;21439;-74
2022/05/07 11:15:34;;;;;;;6.23;3.33;;;;;;;25.41;19.02;101227.09;1803543;79;20947;-74
2022/05/07 11:18:03;;;;;;;8.40;3.30;;;;;;;25.33;19.30;101228.78;1804171;79;20955;-74
2022/05/07 11:20:32;;;;;;;8.83;3.43;;;;;;;25.26;19.62;101226.61;1757671;79;21086;-75
2022/05/07 11:23:00;;;;;;;11.87;3.17;;;;;;;25.18;19.65;101229.47;1799953;79;21798;-74
2022/05/07 11:25:28;;;;;;;6.63;3.00;;;;;;;25.16;19.83;101221.59;1791649;79;21042;-74
2022/05/07 11:28:00;;;;;;;10.37;3.93;;;;;;;25.20;19.38;101214.88;1803154;79;21002;-74
2022/05/07 11:30:25;;;;;;;11.03;3.80;;;;;;;25.17;19.59;101213.64;1802188;79;21093;-74
2022/05/07 11:32:55;;;;;;;23.30;3.70;;;;;;;25.14;19.73;101217.59;1803602;79;20994;-74
2022/05/07 11:35:25;;;;;;;6.07;3.20;;;;;;;25.17;20.76;101207.35;1802894;79;21108;-74
2022/05/07 11:37:52;;;;;;;5.03;3.10;;;;;;;25.17;20.21;101210.09;1801828;79;21021;-73
2022/05/07 11:40:29;;;;;;;10.93;4.30;;;;;;;25.21;20.24;101203.61;1802606;79;21653;-74
2022/05/07 11:45:43;;;;;;;5.30;3.07;;;;;;;25.30;19.29;101195.28;1802345;79;21086;-74
2022/05/07 11:48:14;;;;;;;5.97;2.70;;;;;;;25.54;19.47;101192.34;1768788;79;21256;-75
2022/05/07 11:50:54;;;;;;;5.80;2.85;;;;;;;25.72;19.68;101184.89;1803164;78;21125;-73
2022/05/07 11:53:22;;;;;;;9.10;3.20;;;;;;;25.80;19.74;101187.32;1802639;78;21014;-76
2022/05/07 11:55:50;;;;;;;6.83;3.07;;;;;;;25.79;19.27;101182.15;1802987;79;21069;-74
2022/05/07 11:58:25;;;;;;;7.43;3.60;;;;;;;25.71;18.25;101178.41;1803711;79;21572;-74
2022/05/07 12:00:53;;;;;;;15.87;3.40;;;;;;;25.61;18.71;101181.62;1801958;79;22064;-74
2022/05/07 12:03:26;;;;;;;5.13;3.00;;;;;;;25.58;19.12;101174.89;1801647;78;21045;-74
2022/05/07 12:05:57;;;;;;;7.53;3.60;;;;;;;25.56;19.09;101176.37;1803525;78;21116;-72
2022/05/07 12:08:35;;;;;;;6.13;3.01;;;;;;;25.60;19.21;101165.78;1677521;78;9999880;-73
2022/05/07 12:10:59;;;;;;;39.60;4.60;;;;;;;25.60;19.39;101164.41;1797872;78;21235;-73
2022/05/07 12:13:27;;;;;;;8.10;2.80;;;;;;;25.53;19.53;101164.74;1801964;78;21046;-75